Time;durP1;ratioP1;P1;durP2;ratioP2;P2;SDS_P1;SDS_P2;PMS_P1;PMS_P2;Temp;Humidity;BMP_temperature;BMP_pressure;BME280_temperature;BME280_humidity;BME280_pressure;Samples;Min_cycle;Max_cycle;Signal;HPM_P1;HPM_P2
2022/12/16 00:00:07;;;;;;;23.45;3.97;;;;;;;;;;4995047;28;20033;-73
2022/12/16 00:02:33;;;;;;;24.25;3.65;;;;;;;;;;4992436;28;20026;-74
2022/12/16 00:05:00;;;;;;;21.08;4.07;;;;;;;;;;4995309;28;20023;-74
2022/12/16 00:07:26;;;;;;;32.38;3.55;;;;;;;;;;4992897;28;20038;-74
2022/12/16 00:09:52;;;;;;;23.50;2.50;;;;;;;;;;4999879;28;20030;-74
2022/12/16 00:12:18;;;;;;;17.77;2.42;;;;;;;;;;5000296;28;20026;-74
2022/12/16 00:14:44;;;;;;;19.08;3.13;;;;;;;;;;4999966;28;20022;-73
2022/12/16 00:17:10;;;;;;;22.15;3.38;;;;;;;;;;5001249;28;20112;-74
2022/12/16 00:19:37;;;;;;;23.08;3.45;;;;;;;;;;4997541;28;20070;-75
2022/12/16 00:22:03;;;;;;;21.15;3.40;;;;;;;;;;5002106;28;20018;-73
2022/12/16 00:24:30;;;;;;;20.30;2.50;;;;;;;;;;4997986;28;20033;-74
2022/12/16 00:26:56;;;;;;;18.17;3.13;;;;;;;;;;5000552;28;20022;-75
2022/12/16 00:29:23;;;;;;;22.92;3.88;;;;;;;;;;4997377;28;20092;-74
2022/12/16 00:31:49;;;;;;;15.98;3.28;;;;;;;;;;4999959;28;20018;-74
2022/12/16 00:34:16;;;;;;;21.98;3.15;;;;;;;;;;5000747;28;20029;-73
2022/12/16 00:36:42;;;;;;;16.60;2.97;;;;;;;;;;4998776;28;20026;-73
2022/12/16 00:39:09;;;;;;;15.70;2.15;;;;;;;;;;4996428;28;20355;-74
2022/12/16 00:41:35;;;;;;;20.75;4.53;;;;;;;;;;4990356;28;20048;-73
2022/12/16 00:44:01;;;;;;;15.80;2.08;;;;;;;;;;5001498;28;20482;-74
2022/12/16 00:46:28;;;;;;;21.02;3.83;;;;;;;;;;4999319;28;20029;-74
2022/12/16 00:48:54;;;;;;;28.27;3.67;;;;;;;;;;4998642;28;20033;-77
2022/12/16 00:51:20;;;;;;;18.55;3.08;;;;;;;;;;4998276;28;20037;-74
2022/12/16 00:53:47;;;;;;;18.85;3.00;;;;;;;;;;4998704;28;20026;-73
2022/12/16 00:56:13;;;;;;;21.20;2.50;;;;;;;;;;4997824;28;20028;-74
2022/12/16 00:58:40;;;;;;;17.40;2.67;;;;;;;;;;4997372;28;20491;-74
2022/12/16 01:01:07;;;;;;;14.18;2.22;;;;;;;;;;4998716;28;20501;-74
2022/12/16 01:03:34;;;;;;;16.15;2.70;;;;;;;;;;4998051;28;20026;-75
2022/12/16 01:06:00;;;;;;;14.15;2.17;;;;;;;;;;4996420;28;20049;-75
2022/12/16 01:08:27;;;;;;;19.02;2.35;;;;;;;;;;4998202;28;20104;-75
2022/12/16 01:10:54;;;;;;;18.25;2.40;;;;;;;;;;4996692;28;20030;-75
2022/12/16 01:13:21;;;;;;;18.75;2.58;;;;;;;;;;4999789;28;20414;-75
2022/12/16 01:15:49;;;;;;;12.73;2.30;;;;;;;;;;5000703;28;20896;-75
2022/12/16 01:18:16;;;;;;;21.05;2.45;;;;;;;;;;5000185;28;20017;-74
2022/12/16 01:20:42;;;;;;;23.85;2.45;;;;;;;;;;4997992;28;20041;-75
2022/12/16 01:23:08;;;;;;;22.27;3.33;;;;;;;;;;4995390;28;20026;-74
2022/12/16 01:25:35;;;;;;;17.05;2.53;;;;;;;;;;4999389;28;20104;-75
2022/12/16 01:28:01;;;;;;;22.95;2.92;;;;;;;;;;4998205;28;20261;-75
2022/12/16 01:30:28;;;;;;;13.95;2.60;;;;;;;;;;4998778;28;20022;-75
2022/12/16 01:32:54;;;;;;;12.98;2.45;;;;;;;;;;4993188;28;20428;-75
2022/12/16 01:35:22;;;;;;;24.23;3.25;;;;;;;;;;4997600;28;20151;-74
2022/12/16 01:37:48;;;;;;;17.33;4.03;;;;;;;;;;4994740;28;20088;-74
2022/12/16 01:40:18;;;;;;;17.17;2.83;;;;;;;;;;4999984;28;20026;-75
2022/12/16 01:42:44;;;;;;;30.00;3.55;;;;;;;;;;4998267;28;20072;-75
2022/12/16 01:45:27;;;;;;;25.70;4.32;;;;;;;;;;5000771;28;20032;-76
2022/12/16 01:47:54;;;;;;;28.17;4.88;;;;;;;;;;4998403;28;20603;-76
2022/12/16 01:50:20;;;;;;;26.83;4.15;;;;;;;;;;5000279;28;20029;-75
2022/12/16 01:52:52;;;;;;;26.08;4.32;;;;;;;;;;4998679;28;20022;-75
2022/12/16 01:55:21;;;;;;;27.48;4.15;;;;;;;;;;4999282;28;20029;-75
2022/12/16 01:57:49;;;;;;;30.45;4.70;;;;;;;;;;4992405;28;20525;-76
2022/12/16 02:00:15;;;;;;;26.00;4.75;;;;;;;;;;4997122;28;20548;-77
2022/12/16 02:02:44;;;;;;;24.67;4.25;;;;;;;;;;4997475;28;20079;-75
2022/12/16 02:05:19;;;;;;;34.08;3.53;;;;;;;;;;4997146;28;20475;-75
2022/12/16 02:08:02;;;;;;;35.90;4.85;;;;;;;;;;4997908;28;20022;-75
2022/12/16 02:10:33;;;;;;;30.98;4.88;;;;;;;;;;5000826;28;20029;-75
2022/12/16 02:13:04;;;;;;;30.17;4.55;;;;;;;;;;5002635;28;20044;-75
2022/12/16 02:15:37;;;;;;;16.52;3.20;;;;;;;;;;5003547;28;20026;-76
2022/12/16 02:18:04;;;;;;;31.35;4.40;;;;;;;;;;4998369;28;20109;-76
2022/12/16 02:20:49;;;;;;;28.90;4.22;;;;;;;;;;5004090;28;20037;-75
2022/12/16 02:23:15;;;;;;;30.20;5.13;;;;;;;;;;4997590;28;20022;-75
2022/12/16 02:26:00;;;;;;;34.35;4.95;;;;;;;;;;4999446;28;20051;-76
2022/12/16 02:28:44;;;;;;;32.45;4.88;;;;;;;;;;4996356;28;20069;-76
2022/12/16 02:31:19;;;;;;;38.13;5.03;;;;;;;;;;5000500;28;20628;-76
2022/12/16 02:33:59;;;;;;;27.77;4.82;;;;;;;;;;5002508;28;20022;-77
2022/12/16 02:36:41;;;;;;;32.67;5.18;;;;;;;;;;5002820;28;20021;-76
2022/12/16 02:39:14;;;;;;;41.25;6.82;;;;;;;;;;5002901;28;20461;-76
2022/12/16 02:41:46;;;;;;;28.42;4.40;;;;;;;;;;4999785;28;20025;-75
2022/12/16 02:44:14;;;;;;;37.50;5.88;;;;;;;;;;5000695;28;20029;-75
2022/12/16 02:46:41;;;;;;;34.00;5.13;;;;;;;;;;5000731;28;20682;-75
2022/12/16 02:49:28;;;;;;;36.05;5.03;;;;;;;;;;5000867;28;20030;-75
2022/12/16 02:51:55;;;;;;;28.63;5.00;;;;;;;;;;5000077;28;20014;-75
2022/12/16 02:54:22;;;;;;;38.17;5.22;;;;;;;;;;5001898;28;20052;-75
2022/12/16 02:56:54;;;;;;;47.30;6.13;;;;;;;;;;4997680;28;20094;-76
2022/12/16 02:59:26;;;;;;;31.58;5.72;;;;;;;;;;4999295;28;20030;-76
2022/12/16 03:02:05;;;;;;;44.63;6.95;;;;;;;;;;4997353;28;20026;-76
2022/12/16 03:04:38;;;;;;;45.80;7.32;;;;;;;;;;4995218;28;20029;-76
2022/12/16 03:07:06;;;;;;;53.92;6.15;;;;;;;;;;4998296;28;20022;-75
2022/12/16 03:09:34;;;;;;;54.05;7.35;;;;;;;;;;4998734;28;20033;-75
2022/12/16 03:12:02;;;;;;;40.70;6.45;;;;;;;;;;4998541;28;20096;-75
2022/12/16 03:14:30;;;;;;;44.67;5.82;;;;;;;;;;5002318;28;20486;-76
2022/12/16 03:16:56;;;;;;;46.90;6.63;;;;;;;;;;5000883;28;20033;-76
2022/12/16 03:19:24;;;;;;;51.72;6.80;;;;;;;;;;5000825;28;20494;-75
2022/12/16 03:22:10;;;;;;;52.55;6.53;;;;;;;;;;4993349;28;20030;-76
2022/12/16 03:24:38;;;;;;;45.28;6.78;;;;;;;;;;5000710;28;20386;-75
2022/12/16 03:27:04;;;;;;;45.10;6.78;;;;;;;;;;4997298;28;20117;-75
2022/12/16 03:29:40;;;;;;;53.88;7.80;;;;;;;;;;5002890;28;20041;-75
2022/12/16 03:32:30;;;;;;;34.55;6.13;;;;;;;;;;4998599;28;20064;-75
2022/12/16 03:34:59;;;;;;;52.15;6.35;;;;;;;;;;4972346;28;20687;-75
2022/12/16 03:37:27;;;;;;;41.85;7.78;;;;;;;;;;4999805;28;20034;-75
2022/12/16 03:39:55;;;;;;;47.72;6.95;;;;;;;;;;4999634;28;20092;-77
2022/12/16 03:42:22;;;;;;;49.25;6.53;;;;;;;;;;5001984;28;20030;-75
2022/12/16 03:44:48;;;;;;;37.25;6.60;;;;;;;;;;5002239;28;20014;-75
2022/12/16 03:47:15;;;;;;;43.03;7.25;;;;;;;;;;4999140;28;20030;-76
2022/12/16 03:49:41;;;;;;;48.40;7.65;;;;;;;;;;5000263;28;20106;-75
2022/12/16 03:52:07;;;;;;;45.28;6.50;;;;;;;;;;5002534;28;20022;-76
2022/12/16 03:54:34;;;;;;;51.40;7.50;;;;;;;;;;4999916;28;20689;-75
2022/12/16 03:57:00;;;;;;;64.93;8.80;;;;;;;;;;5000099;28;20368;-76
2022/12/16 03:59:26;;;;;;;41.40;6.35;;;;;;;;;;5000754;28;20048;-75
2022/12/16 04:01:52;;;;;;;45.17;6.82;;;;;;;;;;5003039;28;20091;-76
2022/12/16 04:04:18;;;;;;;58.83;8.05;;;;;;;;;;5004482;28;20360;-76
2022/12/16 04:06:44;;;;;;;49.20;7.30;;;;;;;;;;4996456;28;20022;-76
2022/12/16 04:09:11;;;;;;;38.60;6.07;;;;;;;;;;5002621;28;20076;-75
2022/12/16 04:25:29;;;;;;;51.60;6.85;;;;;;;;;;4995408;28;20061;-75
2022/12/16 04:27:57;;;;;;;41.58;4.80;;;;;;;;;;4996627;28;20066;-76
2022/12/16 04:30:24;;;;;;;41.55;5.18;;;;;;;;;;5000925;28;20112;-75
